sensor_id;sensor_type;location;lat;lon;timestamp;temperature;humidity
7360;DHT22;3720;48.274;7.796;2023-07-13T00:00:59;21.40;99.90
7360;DHT22;3720;48.274;7.796;2023-07-13T00:03:31;21.50;99.90
7360;DHT22;3720;48.274;7.796;2023-07-13T00:06:05;21.50;99.90
7360;DHT22;3720;48.274;7.796;2023-07-13T00:08:37;21.60;99.90
7360;DHT22;3720;48.274;7.796;2023-07-13T00:11:11;21.70;99.90
7360;DHT22;3720;48.274;7.796;2023-07-13T00:13:43;21.80;99.90
7360;DHT22;3720;48.274;7.796;2023-07-13T00:16:15;21.70;99.90
7360;DHT22;3720;48.274;7.796;2023-07-13T00:18:49;21.60;99.90
7360;DHT22;3720;48.274;7.796;2023-07-13T00:21:21;21.60;99.90
7360;DHT22;3720;48.274;7.796;2023-07-13T00:23:52;21.50;99.90
7360;DHT22;3720;48.274;7.796;2023-07-13T00:26:26;21.40;99.90
7360;DHT22;3720;48.274;7.796;2023-07-13T00:28:58;21.40;99.90
7360;DHT22;3720;48.274;7.796;2023-07-13T00:31:31;21.40;99.90
7360;DHT22;3720;48.274;7.796;2023-07-13T00:34:03;21.40;99.90
7360;DHT22;3720;48.274;7.796;2023-07-13T00:36:35;21.40;99.90
7360;DHT22;3720;48.274;7.796;2023-07-13T00:39:07;21.30;99.90
7360;DHT22;3720;48.274;7.796;2023-07-13T00:41:40;21.30;99.90
7360;DHT22;3720;48.274;7.796;2023-07-13T00:44:14;21.20;99.90
7360;DHT22;3720;48.274;7.796;2023-07-13T00:46:46;21.10;99.90
7360;DHT22;3720;48.274;7.796;2023-07-13T00:49:21;21.10;99.90
7360;DHT22;3720;48.274;7.796;2023-07-13T00:51:55;21.10;99.90
7360;DHT22;3720;48.274;7.796;2023-07-13T00:54:30;21.00;99.90
7360;DHT22;3720;48.274;7.796;2023-07-13T00:57:08;21.00;99.90
7360;DHT22;3720;48.274;7.796;2023-07-13T00:59:45;21.00;99.90
7360;DHT22;3720;48.274;7.796;2023-07-13T01:02:18;21.00;99.90
7360;DHT22;3720;48.274;7.796;2023-07-13T01:04:52;21.00;99.90
7360;DHT22;3720;48.274;7.796;2023-07-13T01:07:24;21.00;99.90
7360;DHT22;3720;48.274;7.796;2023-07-13T01:09:56;21.00;99.90
7360;DHT22;3720;48.274;7.796;2023-07-13T01:12:29;21.00;99.90
7360;DHT22;3720;48.274;7.796;2023-07-13T01:15:02;20.90;99.90
7360;DHT22;3720;48.274;7.796;2023-07-13T01:17:35;20.80;99.90
7360;DHT22;3720;48.274;7.796;2023-07-13T01:20:08;20.70;99.90
7360;DHT22;3720;48.274;7.796;2023-07-13T01:22:41;20.70;99.90
7360;DHT22;3720;48.274;7.796;2023-07-13T01:25:13;20.70;99.90
7360;DHT22;3720;48.274;7.796;2023-07-13T01:27:45;20.70;99.90
7360;DHT22;3720;48.274;7.796;2023-07-13T01:30:17;20.70;99.90
7360;DHT22;3720;48.274;7.796;2023-07-13T01:32:49;20.60;99.90
7360;DHT22;3720;48.274;7.796;2023-07-13T01:35:21;20.60;99.90
7360;DHT22;3720;48.274;7.796;2023-07-13T01:37:55;20.60;99.90
7360;DHT22;3720;48.274;7.796;2023-07-13T01:40:27;20.70;99.90
7360;DHT22;3720;48.274;7.796;2023-07-13T01:43:01;20.70;99.90
7360;DHT22;3720;48.274;7.796;2023-07-13T01:45:33;20.70;99.90
7360;DHT22;3720;48.274;7.796;2023-07-13T01:48:05;20.70;99.90
7360;DHT22;3720;48.274;7.796;2023-07-13T01:50:38;20.70;99.90
7360;DHT22;3720;48.274;7.796;2023-07-13T01:53:11;20.60;99.90
7360;DHT22;3720;48.274;7.796;2023-07-13T01:55:43;20.60;99.90
7360;DHT22;3720;48.274;7.796;2023-07-13T01:58:15;20.60;99.90
7360;DHT22;3720;48.274;7.796;2023-07-13T02:00:48;20.60;99.90
7360;DHT22;3720;48.274;7.796;2023-07-13T02:03:20;20.50;99.90
7360;DHT22;3720;48.274;7.796;2023-07-13T02:05:52;20.70;99.90
7360;DHT22;3720;48.274;7.796;2023-07-13T02:08:25;20.60;99.90
7360;DHT22;3720;48.274;7.796;2023-07-13T02:10:57;20.70;99.90
7360;DHT22;3720;48.274;7.796;2023-07-13T02:13:29;20.70;99.90
7360;DHT22;3720;48.274;7.796;2023-07-13T02:16:01;20.60;99.90
7360;DHT22;3720;48.274;7.796;2023-07-13T02:18:33;20.60;99.90
7360;DHT22;3720;48.274;7.796;2023-07-13T02:21:05;20.50;99.90
7360;DHT22;3720;48.274;7.796;2023-07-13T02:23:38;20.30;99.90
7360;DHT22;3720;48.274;7.796;2023-07-13T02:26:10;20.10;99.90
7360;DHT22;3720;48.274;7.796;2023-07-13T02:28:42;20.00;99.90
7360;DHT22;3720;48.274;7.796;2023-07-13T02:31:15;20.00;99.90
7360;DHT22;3720;48.274;7.796;2023-07-13T02:33:47;20.00;99.90
7360;DHT22;3720;48.274;7.796;2023-07-13T02:36:19;20.00;99.90
7360;DHT22;3720;48.274;7.796;2023-07-13T02:38:52;19.90;99.90
7360;DHT22;3720;48.274;7.796;2023-07-13T02:41:24;19.90;99.90
7360;DHT22;3720;48.274;7.796;2023-07-13T02:43:58;19.80;99.90
7360;DHT22;3720;48.274;7.796;2023-07-13T02:46:35;19.70;99.90
7360;DHT22;3720;48.274;7.796;2023-07-13T02:49:08;19.60;99.90
7360;DHT22;3720;48.274;7.796;2023-07-13T02:51:40;19.50;99.90
7360;DHT22;3720;48.274;7.796;2023-07-13T02:54:13;19.40;99.90
7360;DHT22;3720;48.274;7.796;2023-07-13T02:56:45;19.30;99.90
7360;DHT22;3720;48.274;7.796;2023-07-13T02:59:17;19.30;99.90
7360;DHT22;3720;48.274;7.796;2023-07-13T03:01:49;19.10;99.90
7360;DHT22;3720;48.274;7.796;2023-07-13T03:04:21;19.00;99.90
7360;DHT22;3720;48.274;7.796;2023-07-13T03:06:53;19.00;99.90
7360;DHT22;3720;48.274;7.796;2023-07-13T03:09:30;19.00;99.90
7360;DHT22;3720;48.274;7.796;2023-07-13T03:12:03;18.90;99.90
7360;DHT22;3720;48.274;7.796;2023-07-13T03:14:35;18.90;99.90
7360;DHT22;3720;48.274;7.796;2023-07-13T03:17:07;18.90;99.90
7360;DHT22;3720;48.274;7.796;2023-07-13T03:19:39;18.80;99.90
7360;DHT22;3720;48.274;7.796;2023-07-13T03:22:11;18.80;99.90
7360;DHT22;3720;48.274;7.796;2023-07-13T03:24:44;18.80;99.90
7360;DHT22;3720;48.274;7.796;2023-07-13T03:27:17;18.80;99.90
7360;DHT22;3720;48.274;7.796;2023-07-13T03:29:49;18.80;99.90
7360;DHT22;3720;48.274;7.796;2023-07-13T03:32:21;18.80;99.90
7360;DHT22;3720;48.274;7.796;2023-07-13T03:34:53;18.90;99.90
7360;DHT22;3720;48.274;7.796;2023-07-13T03:37:25;18.90;99.90
7360;DHT22;3720;48.274;7.796;2023-07-13T03:39:58;18.90;99.90
7360;DHT22;3720;48.274;7.796;2023-07-13T03:42:30;19.00;99.90
7360;DHT22;3720;48.274;7.796;2023-07-13T03:45:02;19.00;99.90
7360;DHT22;3720;48.274;7.796;2023-07-13T03:47:35;19.00;99.90
7360;DHT22;3720;48.274;7.796;2023-07-13T03:50:08;19.00;99.90
7360;DHT22;3720;48.274;7.796;2023-07-13T03:52:40;19.00;99.90
7360;DHT22;3720;48.274;7.796;2023-07-13T03:55:13;19.00;99.90
7360;DHT22;3720;48.274;7.796;2023-07-13T03:57:45;19.00;99.90
7360;DHT22;3720;48.274;7.796;2023-07-13T04:00:19;19.10;99.90
7360;DHT22;3720;48.274;7.796;2023-07-13T04:02:51;19.10;99.90
7360;DHT22;3720;48.274;7.796;2023-07-13T04:05:23;19.20;99.90
7360;DHT22;3720;48.274;7.796;2023-07-13T04:07:55;19.20;99.90
7360;DHT22;3720;48.274;7.796;2023-07-13T04:10:29;19.20;99.90
7360;DHT22;3720;48.274;7.796;2023-07-13T04:13:01;19.30;99.90
7360;DHT22;3720;48.274;7.796;2023-07-13T04:15:33;19.20;99.90
7360;DHT22;3720;48.274;7.796;2023-07-13T04:18:05;19.10;99.90
7360;DHT22;3720;48.274;7.796;2023-07-13T04:20:37;19.00;99.90
7360;DHT22;3720;48.274;7.796;2023-07-13T04:23:09;18.90;99.90
7360;DHT22;3720;48.274;7.796;2023-07-13T04:25:45;18.80;99.90
7360;DHT22;3720;48.274;7.796;2023-07-13T04:28:16;18.80;99.90
7360;DHT22;3720;48.274;7.796;2023-07-13T04:30:49;18.80;99.90
7360;DHT22;3720;48.274;7.796;2023-07-13T04:33:22;18.70;99.90
7360;DHT22;3720;48.274;7.796;2023-07-13T04:35:55;18.70;99.90
7360;DHT22;3720;48.274;7.796;2023-07-13T04:38:30;18.60;99.90
7360;DHT22;3720;48.274;7.796;2023-07-13T04:41:05;18.60;99.90
7360;DHT22;3720;48.274;7.796;2023-07-13T04:43:37;18.60;99.90
7360;DHT22;3720;48.274;7.796;2023-07-13T04:46:11;18.60;99.90
7360;DHT22;3720;48.274;7.796;2023-07-13T04:48:44;18.70;99.90
7360;DHT22;3720;48.274;7.796;2023-07-13T04:51:16;18.70;99.90
7360;DHT22;3720;48.274;7.796;2023-07-13T04:53:48;18.70;99.90
7360;DHT22;3720;48.274;7.796;2023-07-13T04:56:21;18.80;99.90
7360;DHT22;3720;48.274;7.796;2023-07-13T04:58:53;18.90;99.90
7360;DHT22;3720;48.274;7.796;2023-07-13T05:01:24;18.90;99.90
7360;DHT22;3720;48.274;7.796;2023-07-13T05:03:56;18.90;99.90
7360;DHT22;3720;48.274;7.796;2023-07-13T05:06:30;19.00;99.90
7360;DHT22;3720;48.274;7.796;2023-07-13T05:09:02;19.10;99.90
7360;DHT22;3720;48.274;7.796;2023-07-13T05:11:35;19.30;99.90
7360;DHT22;3720;48.274;7.796;2023-07-13T05:14:07;19.40;99.90
7360;DHT22;3720;48.274;7.796;2023-07-13T05:16:40;19.80;99.90
7360;DHT22;3720;48.274;7.796;2023-07-13T05:19:12;19.80;99.90
7360;DHT22;3720;48.274;7.796;2023-07-13T05:21:44;19.90;99.90
7360;DHT22;3720;48.274;7.796;2023-07-13T05:24:16;19.80;99.90
7360;DHT22;3720;48.274;7.796;2023-07-13T05:26:50;19.70;99.90
7360;DHT22;3720;48.274;7.796;2023-07-13T05:29:22;19.60;99.90
7360;DHT22;3720;48.274;7.796;2023-07-13T05:31:54;19.50;99.90
7360;DHT22;3720;48.274;7.796;2023-07-13T05:34:27;19.40;99.90
7360;DHT22;3720;48.274;7.796;2023-07-13T05:36:59;19.40;99.90
7360;DHT22;3720;48.274;7.796;2023-07-13T05:39:31;19.40;99.90
7360;DHT22;3720;48.274;7.796;2023-07-13T05:42:05;19.40;99.90
7360;DHT22;3720;48.274;7.796;2023-07-13T05:44:37;19.40;99.90
7360;DHT22;3720;48.274;7.796;2023-07-13T05:47:09;19.40;99.90
7360;DHT22;3720;48.274;7.796;2023-07-13T05:49:41;19.30;99.90
7360;DHT22;3720;48.274;7.796;2023-07-13T05:52:13;19.40;99.90
7360;DHT22;3720;48.274;7.796;2023-07-13T05:54:46;19.40;99.90
7360;DHT22;3720;48.274;7.796;2023-07-13T05:57:19;19.40;99.90
7360;DHT22;3720;48.274;7.796;2023-07-13T05:59:51;19.40;99.90
7360;DHT22;3720;48.274;7.796;2023-07-13T06:02:23;19.50;99.90
7360;DHT22;3720;48.274;7.796;2023-07-13T06:04:56;19.50;99.90
7360;DHT22;3720;48.274;7.796;2023-07-13T06:07:27;19.50;99.90
7360;DHT22;3720;48.274;7.796;2023-07-13T06:09:59;19.60;99.90
7360;DHT22;3720;48.274;7.796;2023-07-13T06:12:33;19.70;99.90
7360;DHT22;3720;48.274;7.796;2023-07-13T06:15:06;19.70;99.90
7360;DHT22;3720;48.274;7.796;2023-07-13T06:17:38;19.80;99.90
7360;DHT22;3720;48.274;7.796;2023-07-13T06:20:10;19.90;99.90
7360;DHT22;3720;48.274;7.796;2023-07-13T06:22:42;19.90;99.90
7360;DHT22;3720;48.274;7.796;2023-07-13T06:25:14;20.00;99.90
7360;DHT22;3720;48.274;7.796;2023-07-13T06:27:47;20.00;99.90
7360;DHT22;3720;48.274;7.796;2023-07-13T06:30:20;20.10;99.90
7360;DHT22;3720;48.274;7.796;2023-07-13T06:32:52;20.20;99.90
7360;DHT22;3720;48.274;7.796;2023-07-13T06:35:24;20.20;99.90
7360;DHT22;3720;48.274;7.796;2023-07-13T06:37:56;20.20;99.90
7360;DHT22;3720;48.274;7.796;2023-07-13T06:40:28;20.30;99.90
7360;DHT22;3720;48.274;7.796;2023-07-13T06:43:02;20.40;99.90
7360;DHT22;3720;48.274;7.796;2023-07-13T06:45:36;20.50;99.90
7360;DHT22;3720;48.274;7.796;2023-07-13T06:48:12;20.60;99.90
7360;DHT22;3720;48.274;7.796;2023-07-13T06:50:44;20.70;99.90
7360;DHT22;3720;48.274;7.796;2023-07-13T06:53:17;20.70;99.90
7360;DHT22;3720;48.274;7.796;2023-07-13T06:55:50;20.80;99.90
7360;DHT22;3720;48.274;7.796;2023-07-13T06:58:24;20.80;99.90
7360;DHT22;3720;48.274;7.796;2023-07-13T07:00:56;20.90;99.90
7360;DHT22;3720;48.274;7.796;2023-07-13T07:03:28;21.00;99.90
7360;DHT22;3720;48.274;7.796;2023-07-13T07:06:01;21.10;99.90
7360;DHT22;3720;48.274;7.796;2023-07-13T07:08:33;21.20;99.90
7360;DHT22;3720;48.274;7.796;2023-07-13T07:11:05;21.30;99.90
7360;DHT22;3720;48.274;7.796;2023-07-13T07:13:39;21.50;99.90
7360;DHT22;3720;48.274;7.796;2023-07-13T07:16:11;21.60;99.90
7360;DHT22;3720;48.274;7.796;2023-07-13T07:18:43;21.80;99.90
7360;DHT22;3720;48.274;7.796;2023-07-13T07:21:16;21.80;99.90
7360;DHT22;3720;48.274;7.796;2023-07-13T07:23:47;22.00;99.90
7360;DHT22;3720;48.274;7.796;2023-07-13T07:26:19;22.00;99.90
7360;DHT22;3720;48.274;7.796;2023-07-13T07:28:53;22.10;99.90
7360;DHT22;3720;48.274;7.796;2023-07-13T07:31:24;22.20;99.90
7360;DHT22;3720;48.274;7.796;2023-07-13T07:33:57;22.30;99.90
7360;DHT22;3720;48.274;7.796;2023-07-13T07:36:28;22.40;99.90
7360;DHT22;3720;48.274;7.796;2023-07-13T07:39:00;22.50;99.90
7360;DHT22;3720;48.274;7.796;2023-07-13T07:41:32;22.50;99.90
7360;DHT22;3720;48.274;7.796;2023-07-13T07:44:05;22.60;99.90
7360;DHT22;3720;48.274;7.796;2023-07-13T07:46:40;22.60;99.90
7360;DHT22;3720;48.274;7.796;2023-07-13T07:49:12;22.70;99.90
7360;DHT22;3720;48.274;7.796;2023-07-13T07:51:43;22.80;99.90
7360;DHT22;3720;48.274;7.796;2023-07-13T07:54:16;22.80;99.90
7360;DHT22;3720;48.274;7.796;2023-07-13T07:56:48;22.80;99.90
7360;DHT22;3720;48.274;7.796;2023-07-13T07:59:21;22.90;99.90
7360;DHT22;3720;48.274;7.796;2023-07-13T08:01:53;23.00;99.90
7360;DHT22;3720;48.274;7.796;2023-07-13T08:04:25;23.10;99.90
7360;DHT22;3720;48.274;7.796;2023-07-13T08:06:57;23.10;99.90
7360;DHT22;3720;48.274;7.796;2023-07-13T08:09:29;23.20;99.90
7360;DHT22;3720;48.274;7.796;2023-07-13T08:12:01;23.30;99.90
7360;DHT22;3720;48.274;7.796;2023-07-13T08:14:34;23.40;99.90
7360;DHT22;3720;48.274;7.796;2023-07-13T08:17:06;23.50;99.90
7360;DHT22;3720;48.274;7.796;2023-07-13T08:19:37;23.60;99.90
7360;DHT22;3720;48.274;7.796;2023-07-13T08:22:09;23.60;99.90
7360;DHT22;3720;48.274;7.796;2023-07-13T08:24:41;23.80;99.90
7360;DHT22;3720;48.274;7.796;2023-07-13T08:27:13;23.90;99.90
7360;DHT22;3720;48.274;7.796;2023-07-13T08:29:47;24.10;99.90
7360;DHT22;3720;48.274;7.796;2023-07-13T08:32:21;24.20;99.90
7360;DHT22;3720;48.274;7.796;2023-07-13T08:34:53;24.30;99.90
7360;DHT22;3720;48.274;7.796;2023-07-13T08:37:25;24.40;99.90
7360;DHT22;3720;48.274;7.796;2023-07-13T08:39:57;24.50;99.90
7360;DHT22;3720;48.274;7.796;2023-07-13T08:42:33;24.60;99.90
7360;DHT22;3720;48.274;7.796;2023-07-13T08:45:17;24.60;99.90
7360;DHT22;3720;48.274;7.796;2023-07-13T08:47:54;24.70;99.90
7360;DHT22;3720;48.274;7.796;2023-07-13T08:50:30;24.70;99.90
7360;DHT22;3720;48.274;7.796;2023-07-13T08:53:03;24.80;99.90
7360;DHT22;3720;48.274;7.796;2023-07-13T08:55:36;24.90;99.90
7360;DHT22;3720;48.274;7.796;2023-07-13T08:58:11;25.10;99.90
7360;DHT22;3720;48.274;7.796;2023-07-13T09:00:50;25.30;99.90
7360;DHT22;3720;48.274;7.796;2023-07-13T09:03:27;25.50;99.90
7360;DHT22;3720;48.274;7.796;2023-07-13T09:06:03;25.50;99.90
7360;DHT22;3720;48.274;7.796;2023-07-13T09:08:45;25.60;99.90
7360;DHT22;3720;48.274;7.796;2023-07-13T09:11:32;25.60;99.90
7360;DHT22;3720;48.274;7.796;2023-07-13T09:14:26;25.60;99.90
7360;DHT22;3720;48.274;7.796;2023-07-13T09:17:08;25.60;99.90
7360;DHT22;3720;48.274;7.796;2023-07-13T09:19:43;25.50;99.90
7360;DHT22;3720;48.274;7.796;2023-07-13T09:22:20;25.50;99.90
7360;DHT22;3720;48.274;7.796;2023-07-13T09:25:00;25.50;99.90
7360;DHT22;3720;48.274;7.796;2023-07-13T09:27:37;25.50;99.90
7360;DHT22;3720;48.274;7.796;2023-07-13T09:30:23;25.60;99.90
7360;DHT22;3720;48.274;7.796;2023-07-13T09:32:57;25.70;99.90
7360;DHT22;3720;48.274;7.796;2023-07-13T09:35:30;25.70;99.90
7360;DHT22;3720;48.274;7.796;2023-07-13T09:38:11;25.90;99.90
7360;DHT22;3720;48.274;7.796;2023-07-13T09:41:11;26.10;99.90
7360;DHT22;3720;48.274;7.796;2023-07-13T09:44:07;26.10;99.90
7360;DHT22;3720;48.274;7.796;2023-07-13T09:46:45;26.20;99.90
7360;DHT22;3720;48.274;7.796;2023-07-13T09:49:22;26.30;99.70
7360;DHT22;3720;48.274;7.796;2023-07-13T09:51:59;26.30;99.90
7360;DHT22;3720;48.274;7.796;2023-07-13T09:54:35;26.50;99.90
7360;DHT22;3720;48.274;7.796;2023-07-13T09:57:13;26.70;99.90
7360;DHT22;3720;48.274;7.796;2023-07-13T09:59:47;27.00;99.90
7360;DHT22;3720;48.274;7.796;2023-07-13T10:02:25;27.00;99.90
7360;DHT22;3720;48.274;7.796;2023-07-13T10:05:00;27.00;99.90
7360;DHT22;3720;48.274;7.796;2023-07-13T10:07:39;26.80;99.90
7360;DHT22;3720;48.274;7.796;2023-07-13T10:10:14;26.80;99.40
7360;DHT22;3720;48.274;7.796;2023-07-13T10:12:47;26.80;99.00
7360;DHT22;3720;48.274;7.796;2023-07-13T10:15:22;26.80;97.70
7360;DHT22;3720;48.274;7.796;2023-07-13T10:17:56;27.00;98.30
7360;DHT22;3720;48.274;7.796;2023-07-13T10:20:29;27.10;97.90
7360;DHT22;3720;48.274;7.796;2023-07-13T10:23:04;27.10;95.30
7360;DHT22;3720;48.274;7.796;2023-07-13T10:25:39;27.20;96.40
7360;DHT22;3720;48.274;7.796;2023-07-13T10:28:23;27.40;95.30
7360;DHT22;3720;48.274;7.796;2023-07-13T10:30:58;27.60;95.70
7360;DHT22;3720;48.274;7.796;2023-07-13T10:33:31;27.80;93.90
7360;DHT22;3720;48.274;7.796;2023-07-13T10:36:13;28.00;94.10
7360;DHT22;3720;48.274;7.796;2023-07-13T10:38:47;28.20;95.30
7360;DHT22;3720;48.274;7.796;2023-07-13T10:41:21;28.40;93.80
7360;DHT22;3720;48.274;7.796;2023-07-13T10:43:55;28.40;89.00
7360;DHT22;3720;48.274;7.796;2023-07-13T10:46:28;28.50;90.90
7360;DHT22;3720;48.274;7.796;2023-07-13T10:49:04;28.60;92.20
7360;DHT22;3720;48.274;7.796;2023-07-13T10:51:38;28.70;88.80
7360;DHT22;3720;48.274;7.796;2023-07-13T10:54:15;28.80;87.00
7360;DHT22;3720;48.274;7.796;2023-07-13T10:56:51;28.70;81.00
7360;DHT22;3720;48.274;7.796;2023-07-13T10:59:26;28.30;79.30
7360;DHT22;3720;48.274;7.796;2023-07-13T11:02:10;28.10;85.00
7360;DHT22;3720;48.274;7.796;2023-07-13T11:04:46;28.00;83.30
7360;DHT22;3720;48.274;7.796;2023-07-13T11:07:22;28.10;81.00
7360;DHT22;3720;48.274;7.796;2023-07-13T11:09:56;28.20;80.60
7360;DHT22;3720;48.274;7.796;2023-07-13T11:12:52;28.40;79.50
7360;DHT22;3720;48.274;7.796;2023-07-13T11:15:31;28.60;88.50
7360;DHT22;3720;48.274;7.796;2023-07-13T11:18:04;28.90;86.10
7360;DHT22;3720;48.274;7.796;2023-07-13T11:20:39;28.90;81.40
7360;DHT22;3720;48.274;7.796;2023-07-13T11:23:26;29.00;86.20
7360;DHT22;3720;48.274;7.796;2023-07-13T11:25:59;29.00;90.10
7360;DHT22;3720;48.274;7.796;2023-07-13T11:28:34;28.80;86.00
7360;DHT22;3720;48.274;7.796;2023-07-13T11:31:15;28.90;79.40
7360;DHT22;3720;48.274;7.796;2023-07-13T11:33:56;29.10;80.40
7360;DHT22;3720;48.274;7.796;2023-07-13T11:36:36;29.40;83.20
7360;DHT22;3720;48.274;7.796;2023-07-13T11:39:18;29.30;77.80
7360;DHT22;3720;48.274;7.796;2023-07-13T11:41:53;29.00;80.40
7360;DHT22;3720;48.274;7.796;2023-07-13T11:44:27;28.80;79.00
7360;DHT22;3720;48.274;7.796;2023-07-13T11:47:08;28.80;78.40
7360;DHT22;3720;48.274;7.796;2023-07-13T11:49:43;28.90;80.30
7360;DHT22;3720;48.274;7.796;2023-07-13T11:52:19;29.20;81.10
7360;DHT22;3720;48.274;7.796;2023-07-13T11:54:55;29.30;76.50
7360;DHT22;3720;48.274;7.796;2023-07-13T11:57:30;29.30;78.80
7360;DHT22;3720;48.274;7.796;2023-07-13T12:00:10;29.10;78.70
7360;DHT22;3720;48.274;7.796;2023-07-13T12:02:45;28.70;81.60
7360;DHT22;3720;48.274;7.796;2023-07-13T12:05:20;28.50;82.10
7360;DHT22;3720;48.274;7.796;2023-07-13T12:07:52;28.30;85.60
7360;DHT22;3720;48.274;7.796;2023-07-13T12:10:28;28.50;81.90
7360;DHT22;3720;48.274;7.796;2023-07-13T12:13:02;28.90;80.70
7360;DHT22;3720;48.274;7.796;2023-07-13T12:15:37;29.10;84.90
7360;DHT22;3720;48.274;7.796;2023-07-13T12:18:13;29.30;81.20
7360;DHT22;3720;48.274;7.796;2023-07-13T12:20:46;29.30;79.20
7360;DHT22;3720;48.274;7.796;2023-07-13T12:23:23;29.30;81.70
7360;DHT22;3720;48.274;7.796;2023-07-13T12:25:58;29.40;77.30
7360;DHT22;3720;48.274;7.796;2023-07-13T12:28:33;29.40;77.80
7360;DHT22;3720;48.274;7.796;2023-07-13T12:31:07;29.30;74.20
7360;DHT22;3720;48.274;7.796;2023-07-13T12:33:39;29.20;78.10
7360;DHT22;3720;48.274;7.796;2023-07-13T12:36:12;29.00;79.20
7360;DHT22;3720;48.274;7.796;2023-07-13T12:38:45;28.80;81.40
7360;DHT22;3720;48.274;7.796;2023-07-13T12:41:19;28.40;77.20
7360;DHT22;3720;48.274;7.796;2023-07-13T12:43:53;28.20;78.80
7360;DHT22;3720;48.274;7.796;2023-07-13T12:46:26;28.00;78.80
7360;DHT22;3720;48.274;7.796;2023-07-13T12:48:59;27.90;81.30
7360;DHT22;3720;48.274;7.796;2023-07-13T12:51:31;28.00;83.60
7360;DHT22;3720;48.274;7.796;2023-07-13T12:54:12;28.00;81.00
7360;DHT22;3720;48.274;7.796;2023-07-13T12:56:50;28.10;82.80
7360;DHT22;3720;48.274;7.796;2023-07-13T12:59:23;28.20;83.00
7360;DHT22;3720;48.274;7.796;2023-07-13T13:01:59;28.30;82.50
7360;DHT22;3720;48.274;7.796;2023-07-13T13:04:33;28.40;82.70
7360;DHT22;3720;48.274;7.796;2023-07-13T13:07:09;28.50;84.70
7360;DHT22;3720;48.274;7.796;2023-07-13T13:09:41;28.40;82.80
7360;DHT22;3720;48.274;7.796;2023-07-13T13:12:14;28.40;79.80
7360;DHT22;3720;48.274;7.796;2023-07-13T13:14:47;28.50;81.50
7360;DHT22;3720;48.274;7.796;2023-07-13T13:17:29;28.60;78.70
7360;DHT22;3720;48.274;7.796;2023-07-13T13:20:11;28.70;79.30
7360;DHT22;3720;48.274;7.796;2023-07-13T13:22:46;28.60;79.20
7360;DHT22;3720;48.274;7.796;2023-07-13T13:25:19;28.40;78.90
7360;DHT22;3720;48.274;7.796;2023-07-13T13:27:54;28.40;82.10
7360;DHT22;3720;48.274;7.796;2023-07-13T13:30:26;28.40;83.20
7360;DHT22;3720;48.274;7.796;2023-07-13T13:32:58;28.60;86.80
7360;DHT22;3720;48.274;7.796;2023-07-13T13:35:30;28.90;86.40
7360;DHT22;3720;48.274;7.796;2023-07-13T13:38:02;29.10;86.70
7360;DHT22;3720;48.274;7.796;2023-07-13T13:40:34;29.30;84.50
7360;DHT22;3720;48.274;7.796;2023-07-13T13:43:14;29.50;81.10
7360;DHT22;3720;48.274;7.796;2023-07-13T13:45:47;29.70;85.60
7360;DHT22;3720;48.274;7.796;2023-07-13T13:48:21;30.00;81.80
7360;DHT22;3720;48.274;7.796;2023-07-13T13:51:03;30.10;78.80
7360;DHT22;3720;48.274;7.796;2023-07-13T13:53:40;30.00;76.40
7360;DHT22;3720;48.274;7.796;2023-07-13T13:56:13;30.00;76.90
7360;DHT22;3720;48.274;7.796;2023-07-13T13:58:47;30.10;79.00
7360;DHT22;3720;48.274;7.796;2023-07-13T14:01:20;30.40;78.00
7360;DHT22;3720;48.274;7.796;2023-07-13T14:03:53;30.60;75.20
7360;DHT22;3720;48.274;7.796;2023-07-13T14:06:25;30.90;72.60
7360;DHT22;3720;48.274;7.796;2023-07-13T14:08:57;31.00;75.10
7360;DHT22;3720;48.274;7.796;2023-07-13T14:11:30;31.20;73.10
7360;DHT22;3720;48.274;7.796;2023-07-13T14:14:05;31.50;70.70
7360;DHT22;3720;48.274;7.796;2023-07-13T14:16:37;31.80;72.10
7360;DHT22;3720;48.274;7.796;2023-07-13T14:19:12;31.70;71.10
7360;DHT22;3720;48.274;7.796;2023-07-13T14:21:45;31.50;69.40
7360;DHT22;3720;48.274;7.796;2023-07-13T14:24:18;31.40;69.50
7360;DHT22;3720;48.274;7.796;2023-07-13T14:26:50;31.40;69.30
7360;DHT22;3720;48.274;7.796;2023-07-13T14:29:23;31.70;69.20
7360;DHT22;3720;48.274;7.796;2023-07-13T14:31:55;31.80;67.90
7360;DHT22;3720;48.274;7.796;2023-07-13T14:34:27;32.20;67.90
7360;DHT22;3720;48.274;7.796;2023-07-13T14:36:59;32.50;65.90
7360;DHT22;3720;48.274;7.796;2023-07-13T14:39:31;32.70;66.50
7360;DHT22;3720;48.274;7.796;2023-07-13T14:42:04;32.70;64.10
7360;DHT22;3720;48.274;7.796;2023-07-13T14:44:39;32.80;66.00
7360;DHT22;3720;48.274;7.796;2023-07-13T14:47:11;33.00;63.00
7360;DHT22;3720;48.274;7.796;2023-07-13T14:49:44;33.20;59.60
7360;DHT22;3720;48.274;7.796;2023-07-13T14:52:19;33.20;57.80
7360;DHT22;3720;48.274;7.796;2023-07-13T14:54:52;33.00;57.70
7360;DHT22;3720;48.274;7.796;2023-07-13T14:57:24;32.50;59.30
7360;DHT22;3720;48.274;7.796;2023-07-13T14:59:57;32.50;58.00
7360;DHT22;3720;48.274;7.796;2023-07-13T15:02:30;32.70;58.40
7360;DHT22;3720;48.274;7.796;2023-07-13T15:05:13;33.00;59.60
7360;DHT22;3720;48.274;7.796;2023-07-13T15:07:45;33.10;54.80
7360;DHT22;3720;48.274;7.796;2023-07-13T15:10:19;33.20;56.60
7360;DHT22;3720;48.274;7.796;2023-07-13T15:12:51;33.40;59.70
7360;DHT22;3720;48.274;7.796;2023-07-13T15:15:26;33.40;60.00
7360;DHT22;3720;48.274;7.796;2023-07-13T15:17:58;33.20;59.60
7360;DHT22;3720;48.274;7.796;2023-07-13T15:20:34;33.20;63.30
7360;DHT22;3720;48.274;7.796;2023-07-13T15:23:08;33.00;60.50
7360;DHT22;3720;48.274;7.796;2023-07-13T15:25:41;32.80;62.20
7360;DHT22;3720;48.274;7.796;2023-07-13T15:28:14;32.80;61.50
7360;DHT22;3720;48.274;7.796;2023-07-13T15:30:48;32.90;61.10
7360;DHT22;3720;48.274;7.796;2023-07-13T15:33:24;33.00;61.70
7360;DHT22;3720;48.274;7.796;2023-07-13T15:35:57;33.30;56.80
7360;DHT22;3720;48.274;7.796;2023-07-13T15:38:30;33.30;55.70
7360;DHT22;3720;48.274;7.796;2023-07-13T15:41:10;33.20;54.00
7360;DHT22;3720;48.274;7.796;2023-07-13T15:43:46;32.80;55.00
7360;DHT22;3720;48.274;7.796;2023-07-13T15:46:21;32.40;56.30
7360;DHT22;3720;48.274;7.796;2023-07-13T15:48:55;32.10;56.20
7360;DHT22;3720;48.274;7.796;2023-07-13T15:51:30;31.80;56.90
7360;DHT22;3720;48.274;7.796;2023-07-13T15:54:03;31.70;56.30
7360;DHT22;3720;48.274;7.796;2023-07-13T15:56:37;31.60;55.80
7360;DHT22;3720;48.274;7.796;2023-07-13T15:59:11;31.50;53.80
7360;DHT22;3720;48.274;7.796;2023-07-13T16:01:46;31.40;53.70
7360;DHT22;3720;48.274;7.796;2023-07-13T16:04:19;31.20;54.70
7360;DHT22;3720;48.274;7.796;2023-07-13T16:06:51;31.10;54.00
7360;DHT22;3720;48.274;7.796;2023-07-13T16:09:24;31.10;55.40
7360;DHT22;3720;48.274;7.796;2023-07-13T16:11:56;30.80;56.30
7360;DHT22;3720;48.274;7.796;2023-07-13T16:14:28;30.70;55.10
7360;DHT22;3720;48.274;7.796;2023-07-13T16:17:02;30.70;56.50
7360;DHT22;3720;48.274;7.796;2023-07-13T16:19:35;30.50;57.40
7360;DHT22;3720;48.274;7.796;2023-07-13T16:22:14;30.50;59.50
7360;DHT22;3720;48.274;7.796;2023-07-13T16:24:46;30.60;59.90
7360;DHT22;3720;48.274;7.796;2023-07-13T16:27:18;30.60;60.00
7360;DHT22;3720;48.274;7.796;2023-07-13T16:29:50;30.70;61.10
7360;DHT22;3720;48.274;7.796;2023-07-13T16:32:24;30.90;61.00
7360;DHT22;3720;48.274;7.796;2023-07-13T16:34:56;31.20;60.80
7360;DHT22;3720;48.274;7.796;2023-07-13T16:37:30;31.30;59.30
7360;DHT22;3720;48.274;7.796;2023-07-13T16:40:02;31.40;58.90
7360;DHT22;3720;48.274;7.796;2023-07-13T16:42:38;31.40;59.10
7360;DHT22;3720;48.274;7.796;2023-07-13T16:45:11;31.40;57.70